Tulsa, OK

1:37 AM CDT on July 26, 2016 (GMT -0500)
Tulsa International | | Change Station

Elev 676 ft 36.20 °N, 95.89 °W | Updated 44 minutes ago

Overcast
Overcast
81 °F
Feels Like 86 °F
N
5
Wind Variable Wind from North

Today
High -- | Low -- °F
--% Chance of Precip.
Yesterday
High -- | Low -- °F
Precip. -- in
Pressure 29.96 in
Visibility 10.0 miles
Clouds Few 6500 ft
Mostly Cloudy 9000 ft
Overcast 14000 ft
Heat Index 86 °F
Dew Point 74 °F
Humidity 79%
Rainfall 0.00 in
Snow Depth Not available.
6:26 AM 8:33 PM
Waning Gibbous, 58% visible
METAR KTUL 260553Z 01004KT 10SM FEW065 BKN090 OVC140 27/23 A2999 RMK AO2 SLP144 T02720233 10311 20272 403330272 51007
Pressure 29.96 in
Visibility 10.0 miles
Clouds Few 6500 ft
Mostly Cloudy 9000 ft
Overcast 14000 ft
Heat Index 86 °F
Dew Point 74 °F
Humidity 79%
Rainfall 0.00 in
Snow Depth Not available.
6:26 AM 8:33 PM
Waning Gibbous, 58% visible
METAR KTUL 260553Z 01004KT 10SM FEW065 BKN090 OVC140 27/23 A2999 RMK AO2 SLP144 T02720233 10311 20272 403330272 51007

10-Day Weather Forecast

Almanac

Astronomy

Jul. 26, 2016 Rise Set
Actual Time
Civil Twilight
Nautical Twilight
Astronomical Twilight
Moon
Length of Visible Light
Length of Day
Tomorrow will be .
, % of the Moon is Illuminated

Today's Extremes

State Highs State Lows

Community

WunderPhotos

Upload Photos

1,927,551 photos uploaded!

WunderBlog® & News

Nearby

Air Quality

  Air Quality AQ Index Pollutant
Not available.

Snow Depth

Station Depth Elevation

Earthquake Activity

City Distance Mag. Time & Date
Minimum magnitude displayed is 2.5.

Coastal Water Temperatures

Place Temperature

Stations

Nearby Weather Stations

Station Location Temp. Windchill Dew Point Humidity Wind Precip. Elev Updated Type
                   

Watches & Warnings

There are currently no watches in effect.